createdAt,value
2019-02-17T00:01:25.850Z,86.15
2019-02-17T00:03:59.131Z,86.15
2019-02-17T00:06:33.603Z,85.96
2019-02-17T00:09:10.201Z,86.19
2019-02-17T00:11:43.486Z,86.38
2019-02-17T00:14:16.762Z,86.03
2019-02-17T00:16:50.102Z,85.96
2019-02-17T00:19:23.386Z,85.98
2019-02-17T00:21:56.705Z,86.28
2019-02-17T00:24:30.023Z,85.75
2019-02-17T00:27:03.311Z,85.54
2019-02-17T00:29:36.614Z,86.27
2019-02-17T00:32:10.917Z,86.81
2019-02-17T00:34:45.856Z,87.26
2019-02-17T00:37:19.158Z,86.66
2019-02-17T00:39:54.070Z,86.88
2019-02-17T00:42:27.402Z,86.64
2019-02-17T00:45:00.673Z,86.54
2019-02-17T00:47:34.556Z,86.74
2019-02-17T00:50:09.507Z,86.60
2019-02-17T00:52:42.823Z,86.87
2019-02-17T00:55:16.209Z,86.86
2019-02-17T00:57:49.504Z,86.75
2019-02-17T01:00:22.798Z,87.17
2019-02-17T01:02:56.096Z,86.37
2019-02-17T01:05:30.494Z,86.16
2019-02-17T01:08:03.781Z,86.54
2019-02-17T01:10:37.540Z,86.40
2019-02-17T01:13:10.844Z,86.59
2019-02-17T01:15:44.149Z,86.93
2019-02-17T01:18:17.443Z,87.68
2019-02-17T01:20:50.759Z,86.71
2019-02-17T01:23:24.065Z,86.34
2019-02-17T01:25:57.380Z,86.28
2019-02-17T01:28:30.679Z,86.72
2019-02-17T01:31:04.063Z,87.17
2019-02-17T01:33:37.352Z,87.35
2019-02-17T01:36:10.724Z,87.41
2019-02-17T01:38:44.285Z,87.27
2019-02-17T01:41:17.609Z,87.40
2019-02-17T01:43:52.461Z,87.21
2019-02-17T01:46:25.794Z,87.47
2019-02-17T01:48:59.074Z,87.69
2019-02-17T01:51:34.039Z,88.18
2019-02-17T01:54:07.295Z,88.56
2019-02-17T01:56:40.603Z,88.88
2019-02-17T01:59:13.896Z,89.08
2019-02-17T02:01:47.777Z,87.72
2019-02-17T02:04:21.087Z,87.63
2019-02-17T02:06:54.430Z,88.21
2019-02-17T02:09:27.717Z,88.21
2019-02-17T02:12:01.030Z,88.18
2019-02-17T02:14:34.341Z,89.32
2019-02-17T02:17:07.686Z,89.15
2019-02-17T02:19:40.991Z,89.42
2019-02-17T02:22:14.309Z,91.07
2019-02-17T02:24:47.623Z,88.92
2019-02-17T02:27:20.933Z,87.79
2019-02-17T02:29:54.234Z,88.18
2019-02-17T02:32:27.555Z,89.13
2019-02-17T02:35:00.917Z,88.55
2019-02-17T02:37:34.233Z,88.73
2019-02-17T02:40:08.305Z,88.00
2019-02-17T02:42:42.966Z,88.46
2019-02-17T02:45:16.292Z,89.27
2019-02-17T02:47:49.602Z,90.02
2019-02-17T02:50:22.898Z,89.40
2019-02-17T02:52:56.195Z,89.52
2019-02-17T02:55:29.494Z,89.02
2019-02-17T02:58:02.872Z,88.76
2019-02-17T03:00:36.186Z,88.84
2019-02-17T03:03:09.493Z,88.84
2019-02-17T03:05:44.424Z,88.71
2019-02-17T03:08:17.747Z,88.49
2019-02-17T03:10:51.059Z,88.48
2019-02-17T03:13:24.356Z,88.60
2019-02-17T03:15:57.633Z,88.52
2019-02-17T03:18:30.940Z,88.32
2019-02-17T03:21:04.220Z,88.28
2019-02-17T03:23:37.538Z,88.42
2019-02-17T03:26:10.835Z,88.38
2019-02-17T03:28:44.140Z,88.49
2019-02-17T03:31:17.564Z,88.22
2019-02-17T03:33:50.834Z,88.36
2019-02-17T03:36:24.132Z,88.58
2019-02-17T03:38:57.422Z,89.07
2019-02-17T03:41:30.712Z,89.07
2019-02-17T03:44:04.107Z,89.58
2019-02-17T03:46:37.403Z,89.08
2019-02-17T03:49:10.722Z,89.44
2019-02-17T03:51:44.002Z,89.02
2019-02-17T03:54:17.327Z,89.31
2019-02-17T03:56:50.618Z,89.67
2019-02-17T03:59:23.921Z,89.89
2019-02-17T04:01:57.201Z,89.48
2019-02-17T04:04:30.538Z,89.51
2019-02-17T04:07:04.068Z,89.38
2019-02-17T04:09:37.374Z,89.09
2019-02-17T04:12:10.644Z,89.13
2019-02-17T04:14:44.345Z,88.59
2019-02-17T04:17:17.714Z,88.50
2019-02-17T04:19:50.995Z,88.49
2019-02-17T04:22:25.280Z,88.98
2019-02-17T04:24:58.583Z,88.72
2019-02-17T04:27:31.877Z,89.26
2019-02-17T04:30:06.019Z,89.43
2019-02-17T04:32:39.300Z,89.64
2019-02-17T04:35:12.604Z,89.33
2019-02-17T04:37:45.886Z,89.30
2019-02-17T04:40:19.255Z,89.36
2019-02-17T04:42:52.550Z,89.24
2019-02-17T04:45:25.884Z,88.96
2019-02-17T04:48:00.698Z,88.99
2019-02-17T04:50:33.926Z,88.95
2019-02-17T04:53:07.214Z,88.83
2019-02-17T04:55:40.521Z,89.09
2019-02-17T04:58:13.792Z,88.80
2019-02-17T05:00:47.088Z,89.20
2019-02-17T05:03:20.363Z,89.57
2019-02-17T05:05:53.667Z,90.55
2019-02-17T05:08:26.952Z,90.17
2019-02-17T05:11:00.928Z,89.69
2019-02-17T05:13:34.193Z,89.53
2019-02-17T05:16:07.504Z,89.64
2019-02-17T05:18:42.423Z,89.69
2019-02-17T05:21:15.724Z,89.57
2019-02-17T05:23:49.015Z,89.82
2019-02-17T05:26:22.309Z,89.80
2019-02-17T05:28:56.629Z,89.61
2019-02-17T05:31:31.710Z,89.35
2019-02-17T05:34:04.984Z,89.30
2019-02-17T05:36:38.288Z,89.36
2019-02-17T05:39:11.599Z,89.87
2019-02-17T05:41:44.887Z,89.71
2019-02-17T05:44:18.163Z,89.49
2019-02-17T05:46:51.467Z,89.62
2019-02-17T05:49:24.735Z,89.39
2019-02-17T05:51:59.685Z,89.81
2019-02-17T05:54:32.996Z,89.69
2019-02-17T05:57:06.313Z,89.05
2019-02-17T05:59:39.426Z,89.01
2019-02-17T06:02:12.722Z,88.48
2019-02-17T06:04:46.015Z,88.72
2019-02-17T06:07:19.306Z,88.59
2019-02-17T06:09:52.629Z,89.33
2019-02-17T06:12:25.880Z,89.90
2019-02-17T06:15:00.847Z,90.02
2019-02-17T06:17:36.227Z,90.17
2019-02-17T06:20:10.867Z,90.04
2019-02-17T06:22:45.315Z,89.41
2019-02-17T06:25:18.604Z,89.45
2019-02-17T06:27:51.895Z,89.36
2019-02-17T06:30:25.204Z,89.43
2019-02-17T06:32:59.832Z,89.27
2019-02-17T06:35:33.107Z,89.87
2019-02-17T06:38:06.405Z,89.23
2019-02-17T06:40:41.249Z,89.43
2019-02-17T06:43:15.282Z,89.80
2019-02-17T06:45:48.584Z,89.14
2019-02-17T06:48:21.864Z,89.11
2019-02-17T06:50:55.196Z,88.91
2019-02-17T06:53:28.498Z,88.56
2019-02-17T06:56:03.435Z,88.40
2019-02-17T06:58:36.721Z,88.85
2019-02-17T07:01:10.013Z,88.37
2019-02-17T07:03:44.935Z,88.08
2019-02-17T07:06:22.584Z,88.24
2019-02-17T07:08:55.857Z,88.85
2019-02-17T07:11:29.173Z,88.88
2019-02-17T07:14:02.455Z,88.13
2019-02-17T07:16:35.779Z,88.28
2019-02-17T07:19:09.066Z,87.77
2019-02-17T07:21:42.364Z,87.16
2019-02-17T07:24:15.668Z,86.38
2019-02-17T07:26:48.971Z,85.65
2019-02-17T07:29:22.255Z,85.69
2019-02-17T07:31:55.567Z,84.67
2019-02-17T07:34:28.849Z,84.33
2019-02-17T07:37:02.156Z,84.28
2019-02-17T07:39:35.271Z,84.65
2019-02-17T07:42:09.636Z,84.53
2019-02-17T07:44:43.040Z,84.75
2019-02-17T07:47:18.135Z,84.28
2019-02-17T07:49:51.510Z,84.45
2019-02-17T07:52:24.806Z,84.20
2019-02-17T07:54:58.095Z,83.50
2019-02-17T07:57:31.399Z,83.22
2019-02-17T08:00:07.824Z,83.05
2019-02-17T08:02:41.712Z,83.37
2019-02-17T08:05:15.000Z,82.83
2019-02-17T08:07:48.300Z,82.09
2019-02-17T08:10:21.579Z,81.70
2019-02-17T08:12:56.219Z,81.30
2019-02-17T08:15:29.511Z,80.98
2019-02-17T08:18:02.803Z,80.85
2019-02-17T08:20:36.644Z,80.41
2019-02-17T08:23:10.143Z,80.60
2019-02-17T08:25:43.439Z,81.17
2019-02-17T08:28:16.748Z,80.75
2019-02-17T08:30:50.029Z,81.04
2019-02-17T08:33:23.384Z,81.25
2019-02-17T08:35:56.669Z,80.83
2019-02-17T08:38:29.996Z,80.36
2019-02-17T08:41:04.654Z,79.99
2019-02-17T08:43:39.068Z,80.02
2019-02-17T08:46:12.350Z,80.24
2019-02-17T08:48:45.660Z,80.19
2019-02-17T08:51:18.954Z,80.13
2019-02-17T08:53:52.361Z,79.79
2019-02-17T08:56:25.659Z,79.86
2019-02-17T08:58:59.029Z,79.13
2019-02-17T09:01:32.293Z,78.88
2019-02-17T09:04:05.615Z,77.57
2019-02-17T09:06:38.959Z,77.34
2019-02-17T09:09:13.805Z,76.45
2019-02-17T09:11:47.095Z,75.55
2019-02-17T09:14:20.412Z,74.46
2019-02-17T09:16:53.704Z,74.16
2019-02-17T09:19:27.018Z,73.32
2019-02-17T09:22:00.301Z,72.92
2019-02-17T09:24:33.632Z,72.38
2019-02-17T09:27:06.910Z,71.70
2019-02-17T09:29:40.204Z,71.20
2019-02-17T09:32:16.213Z,70.96
2019-02-17T09:34:48.529Z,70.69
2019-02-17T09:37:21.901Z,70.56
2019-02-17T09:39:55.202Z,69.41
2019-02-17T09:42:28.540Z,68.96
2019-02-17T09:45:01.953Z,67.37
2019-02-17T09:47:35.260Z,66.67
2019-02-17T09:50:13.108Z,67.08
2019-02-17T09:52:46.394Z,65.30
2019-02-17T09:55:20.576Z,64.73
2019-02-17T09:57:53.910Z,63.59
2019-02-17T10:00:27.223Z,62.36
2019-02-17T10:03:00.523Z,60.30
2019-02-17T10:05:33.857Z,59.43
2019-02-17T10:08:07.154Z,58.99
2019-02-17T10:10:40.466Z,58.97
2019-02-17T10:13:13.750Z,59.21
2019-02-17T10:15:47.119Z,59.20
2019-02-17T10:18:20.392Z,61.09
2019-02-17T10:20:53.722Z,62.49
2019-02-17T10:23:27.011Z,63.26
2019-02-17T10:26:00.328Z,62.41
2019-02-17T10:28:42.066Z,63.17
2019-02-17T10:31:08.734Z,61.80
2019-02-17T10:33:42.005Z,61.44
2019-02-17T10:36:15.311Z,60.57
2019-02-17T10:38:48.605Z,60.06
2019-02-17T10:41:21.917Z,59.21
2019-02-17T10:43:55.207Z,58.93
2019-02-17T10:46:28.516Z,58.43
2019-02-17T10:49:01.824Z,57.20
2019-02-17T10:51:35.109Z,56.65
2019-02-17T10:54:08.409Z,54.73
2019-02-17T10:56:43.324Z,54.31
2019-02-17T10:59:16.625Z,53.33
2019-02-17T11:01:49.991Z,53.69
2019-02-17T11:04:23.312Z,52.97
2019-02-17T11:06:56.592Z,53.70
2019-02-17T11:09:29.895Z,52.90
2019-02-17T11:12:03.210Z,48.60
2019-02-17T11:14:36.524Z,44.07
2019-02-17T11:17:09.831Z,41.78
2019-02-17T11:19:43.120Z,40.49
2019-02-17T11:22:22.946Z,38.67
2019-02-17T11:24:52.988Z,35.51
2019-02-17T11:27:26.274Z,36.09
2019-02-17T11:29:59.585Z,36.79
2019-02-17T11:32:32.889Z,36.32
2019-02-17T11:35:06.920Z,36.74
2019-02-17T11:37:40.207Z,36.91
2019-02-17T11:40:13.891Z,33.94
2019-02-17T11:42:47.167Z,34.62
2019-02-17T11:45:21.032Z,34.59
2019-02-17T11:47:54.563Z,34.13
2019-02-17T11:50:28.968Z,33.58
2019-02-17T11:53:02.252Z,34.26
2019-02-17T11:55:35.404Z,32.14
2019-02-17T11:58:08.706Z,33.07
2019-02-17T12:00:41.823Z,33.13
2019-02-17T12:03:15.126Z,31.03
2019-02-17T12:05:48.415Z,30.14
2019-02-17T12:08:21.708Z,31.96
2019-02-17T12:10:55.047Z,30.71
2019-02-17T12:13:28.359Z,30.35
2019-02-17T12:16:01.691Z,32.10
2019-02-17T12:18:34.986Z,31.38
2019-02-17T12:21:12.679Z,30.54
2019-02-17T12:24:03.485Z,30.06
2019-02-17T12:26:44.251Z,32.19
2019-02-17T12:29:19.169Z,29.56
2019-02-17T12:31:52.469Z,35.27
2019-02-17T12:34:25.828Z,31.67
2019-02-17T12:36:59.142Z,29.06
2019-02-17T12:39:32.420Z,28.88
2019-02-17T12:42:05.725Z,30.05
2019-02-17T12:44:39.112Z,31.59
2019-02-17T12:47:12.395Z,32.32
2019-02-17T12:49:45.676Z,32.60
2019-02-17T12:52:18.996Z,31.29
2019-02-17T12:54:52.280Z,29.25
2019-02-17T12:57:25.588Z,30.51
2019-02-17T12:59:58.871Z,31.04
2019-02-17T13:02:32.169Z,29.54
2019-02-17T13:05:07.627Z,29.82
2019-02-17T13:07:42.695Z,27.81
2019-02-17T13:10:15.990Z,28.09
2019-02-17T13:12:49.314Z,29.13
2019-02-17T13:15:22.590Z,29.61
2019-02-17T13:17:55.948Z,27.84
2019-02-17T13:20:29.187Z,28.06
2019-02-17T13:23:02.532Z,27.19
2019-02-17T13:25:38.082Z,23.80
2019-02-17T13:28:10.855Z,24.82
2019-02-17T13:30:44.134Z,24.90
2019-02-17T13:33:17.820Z,24.26
2019-02-17T13:35:51.135Z,23.57
2019-02-17T13:38:24.486Z,24.13
2019-02-17T13:40:57.783Z,23.75
2019-02-17T13:43:31.094Z,23.67
2019-02-17T13:46:04.407Z,23.07
2019-02-17T13:48:37.716Z,23.83
2019-02-17T13:51:11.027Z,23.11
2019-02-17T13:53:44.343Z,22.47
2019-02-17T13:56:17.634Z,21.59
2019-02-17T13:58:50.943Z,22.13
2019-02-17T14:01:24.245Z,23.08
2019-02-17T14:03:57.541Z,22.72
2019-02-17T14:06:30.825Z,22.33
2019-02-17T14:09:04.875Z,22.17
2019-02-17T14:11:38.181Z,21.55
2019-02-17T14:14:11.506Z,20.87
2019-02-17T14:16:44.788Z,21.68
2019-02-17T14:19:18.087Z,21.14
2019-02-17T14:21:51.389Z,19.98
2019-02-17T14:24:24.729Z,21.03
2019-02-17T14:26:58.013Z,20.72
2019-02-17T14:29:31.336Z,23.43
2019-02-17T14:32:06.265Z,23.02
2019-02-17T14:34:39.602Z,23.53
2019-02-17T14:37:13.366Z,23.92
2019-02-17T14:39:46.777Z,24.07
2019-02-17T14:42:20.148Z,23.92
2019-02-17T14:44:55.089Z,23.75
2019-02-17T14:47:28.402Z,25.02
2019-02-17T14:50:01.722Z,25.24
2019-02-17T14:52:35.098Z,24.15
2019-02-17T14:55:12.498Z,24.06
2019-02-17T14:57:45.793Z,24.56
2019-02-17T15:00:19.088Z,24.70
2019-02-17T15:02:52.383Z,23.58
2019-02-17T15:05:25.668Z,23.75
2019-02-17T15:07:58.971Z,24.59
2019-02-17T15:10:32.264Z,24.24
2019-02-17T15:13:05.618Z,24.34
2019-02-17T15:15:38.913Z,24.36
2019-02-17T15:18:12.257Z,23.86
2019-02-17T15:20:45.529Z,23.46
2019-02-17T15:23:18.863Z,23.67
2019-02-17T15:25:52.127Z,23.57
2019-02-17T15:28:25.504Z,23.92
2019-02-17T15:30:58.820Z,23.86
2019-02-17T15:33:33.122Z,24.87
2019-02-17T15:36:06.407Z,25.90
2019-02-17T15:38:39.722Z,27.47
2019-02-17T15:41:13.080Z,29.29
2019-02-17T15:43:48.031Z,29.61
2019-02-17T15:46:21.279Z,30.74
2019-02-17T15:48:54.596Z,30.81
2019-02-17T15:51:27.894Z,30.66
2019-02-17T15:54:01.201Z,30.97
2019-02-17T15:56:34.496Z,32.34
2019-02-17T15:59:07.787Z,32.22
2019-02-17T16:01:41.079Z,32.12
2019-02-17T16:04:14.387Z,32.91
2019-02-17T16:06:47.673Z,34.17
2019-02-17T16:09:20.985Z,34.67
2019-02-17T16:11:54.286Z,34.86
2019-02-17T16:14:27.623Z,34.24
2019-02-17T16:17:00.902Z,34.94
2019-02-17T16:19:34.224Z,34.62
2019-02-17T16:22:07.528Z,34.32
2019-02-17T16:24:40.821Z,34.51
2019-02-17T16:27:14.791Z,34.72
2019-02-17T16:29:48.113Z,35.33
2019-02-17T16:32:21.848Z,35.99
2019-02-17T16:34:55.136Z,37.63
2019-02-17T16:37:28.442Z,37.84
2019-02-17T16:40:01.760Z,39.38
2019-02-17T16:42:35.051Z,39.85
2019-02-17T16:45:10.809Z,40.63
2019-02-17T16:47:47.216Z,41.71
2019-02-17T16:50:31.043Z,43.65
2019-02-17T16:53:07.300Z,44.97
2019-02-17T16:55:41.150Z,46.40
2019-02-17T16:58:14.420Z,47.02
2019-02-17T17:00:48.017Z,48.33
2019-02-17T17:03:21.300Z,49.38
2019-02-17T17:05:54.625Z,49.17
2019-02-17T17:08:27.895Z,50.48
2019-02-17T17:11:04.349Z,51.48
2019-02-17T17:13:37.633Z,52.29
2019-02-17T17:16:10.973Z,51.97
2019-02-17T17:18:44.251Z,52.04
2019-02-17T17:21:17.545Z,52.79
2019-02-17T17:23:50.828Z,52.62
2019-02-17T17:26:24.130Z,52.61
2019-02-17T17:28:57.394Z,52.60
2019-02-17T17:31:30.707Z,52.41
2019-02-17T17:34:03.992Z,52.41
2019-02-17T17:36:37.345Z,52.90
2019-02-17T17:39:10.612Z,53.43
2019-02-17T17:41:43.922Z,53.90
2019-02-17T17:44:17.240Z,54.80
2019-02-17T17:46:50.599Z,55.31
2019-02-17T17:49:23.844Z,55.58
2019-02-17T17:51:57.150Z,56.63
2019-02-17T17:54:30.435Z,57.03
2019-02-17T17:57:03.924Z,57.89
2019-02-17T17:59:37.239Z,59.04
2019-02-17T18:02:10.565Z,59.40
2019-02-17T18:04:45.422Z,59.62
2019-02-17T18:07:18.732Z,60.50
2019-02-17T18:09:52.073Z,60.83
2019-02-17T18:12:25.346Z,60.76
2019-02-17T18:14:58.655Z,60.79
2019-02-17T18:17:31.953Z,61.06
2019-02-17T18:20:09.297Z,61.90
2019-02-17T18:22:42.702Z,62.07
2019-02-17T18:25:16.076Z,62.67
2019-02-17T18:27:49.372Z,63.38
2019-02-17T18:30:22.658Z,63.05
2019-02-17T18:32:55.990Z,63.03
2019-02-17T18:35:29.298Z,63.18
2019-02-17T18:38:02.594Z,62.81
2019-02-17T18:40:44.734Z,62.75
2019-02-17T18:43:11.025Z,63.94
2019-02-17T18:45:44.296Z,64.86
2019-02-17T18:48:17.671Z,65.68
2019-02-17T18:50:58.920Z,66.00
2019-02-17T18:53:26.002Z,65.36
2019-02-17T18:55:59.307Z,64.85
2019-02-17T18:58:32.590Z,65.15
2019-02-17T19:01:05.990Z,66.31
2019-02-17T19:03:39.274Z,66.96
2019-02-17T19:06:12.649Z,66.74
2019-02-17T19:08:45.920Z,66.88
2019-02-17T19:11:19.279Z,66.85
2019-02-17T19:13:52.574Z,67.14
2019-02-17T19:16:25.952Z,67.20
2019-02-17T19:18:59.239Z,67.60
2019-02-17T19:21:32.565Z,67.95
2019-02-17T19:24:05.875Z,67.57
2019-02-17T19:26:40.350Z,68.82
2019-02-17T19:29:13.714Z,68.19
2019-02-17T19:31:47.015Z,67.75
2019-02-17T19:34:20.302Z,68.00
2019-02-17T19:36:53.694Z,68.45
2019-02-17T19:39:26.996Z,69.20
2019-02-17T19:42:00.296Z,69.48
2019-02-17T19:44:33.595Z,69.48
2019-02-17T19:47:06.966Z,69.78
2019-02-17T19:49:40.258Z,70.01
2019-02-17T19:52:13.560Z,70.59
2019-02-17T19:54:47.446Z,70.88
2019-02-17T19:57:21.424Z,71.64
2019-02-17T19:59:54.759Z,71.98
2019-02-17T20:02:29.738Z,71.44
2019-02-17T20:05:08.035Z,71.55
2019-02-17T20:07:41.336Z,72.66
2019-02-17T20:10:14.715Z,73.63
2019-02-17T20:12:47.984Z,74.33
2019-02-17T20:15:23.149Z,74.29
2019-02-17T20:17:56.493Z,73.77
2019-02-17T20:20:29.774Z,73.60
2019-02-17T20:23:04.496Z,72.98
2019-02-17T20:25:37.801Z,72.76
2019-02-17T20:28:11.673Z,72.99
2019-02-17T20:30:44.981Z,72.51
2019-02-17T20:33:18.291Z,72.28
2019-02-17T20:36:02.103Z,72.52
2019-02-17T20:38:26.678Z,72.95
2019-02-17T20:41:00.228Z,73.23
2019-02-17T20:43:33.639Z,73.29
2019-02-17T20:46:06.934Z,73.43
2019-02-17T20:48:40.347Z,73.75
2019-02-17T20:51:13.640Z,74.53
2019-02-17T20:53:47.552Z,74.85
2019-02-17T20:56:20.798Z,75.53
2019-02-17T20:58:54.107Z,75.48
2019-02-17T21:01:27.534Z,75.92
2019-02-17T21:04:00.840Z,76.71
2019-02-17T21:06:34.130Z,76.13
2019-02-17T21:09:07.432Z,76.72
2019-02-17T21:11:40.730Z,76.81
2019-02-17T21:14:14.041Z,77.56
2019-02-17T21:16:47.327Z,77.36
2019-02-17T21:19:20.653Z,76.44
2019-02-17T21:21:54.008Z,75.97
2019-02-17T21:24:28.399Z,76.04
2019-02-17T21:27:03.322Z,76.22
2019-02-17T21:29:38.254Z,76.07
2019-02-17T21:32:11.531Z,76.28
2019-02-17T21:34:44.843Z,76.69
2019-02-17T21:37:18.125Z,76.88
2019-02-17T21:39:51.414Z,77.15
2019-02-17T21:42:24.761Z,77.38
2019-02-17T21:44:58.078Z,78.14
2019-02-17T21:47:31.353Z,78.02
2019-02-17T21:50:13.377Z,76.79
2019-02-17T21:52:46.655Z,76.59
2019-02-17T21:55:20.017Z,76.38
2019-02-17T21:57:53.599Z,76.42
2019-02-17T22:00:26.940Z,77.00
2019-02-17T22:03:00.227Z,77.47
2019-02-17T22:05:35.191Z,77.27
2019-02-17T22:08:08.440Z,77.59
2019-02-17T22:10:41.759Z,77.84
2019-02-17T22:13:15.047Z,78.02
2019-02-17T22:15:48.336Z,78.68
2019-02-17T22:18:21.616Z,78.74
2019-02-17T22:20:54.949Z,78.99
2019-02-17T22:23:29.769Z,78.96
2019-02-17T22:26:03.082Z,79.26
2019-02-17T22:28:36.353Z,79.06
2019-02-17T22:31:09.694Z,78.99
2019-02-17T22:33:45.804Z,78.54
2019-02-17T22:36:19.123Z,78.46
2019-02-17T22:38:52.396Z,78.99
2019-02-17T22:41:25.843Z,78.84
2019-02-17T22:43:59.128Z,79.03
2019-02-17T22:46:32.424Z,78.93
2019-02-17T22:49:05.730Z,78.45
2019-02-17T22:51:39.015Z,78.75
2019-02-17T22:54:12.296Z,78.40
2019-02-17T22:56:45.587Z,79.24
2019-02-17T22:59:18.874Z,79.36
2019-02-17T23:01:52.185Z,79.47
2019-02-17T23:04:25.473Z,79.71
2019-02-17T23:06:58.848Z,80.33
2019-02-17T23:09:32.130Z,81.63
2019-02-17T23:12:05.576Z,81.42
2019-02-17T23:14:38.893Z,80.73
2019-02-17T23:17:12.169Z,80.62
2019-02-17T23:19:45.481Z,80.60
2019-02-17T23:22:18.784Z,80.54
2019-02-17T23:24:52.151Z,80.68
2019-02-17T23:27:25.437Z,81.08
2019-02-17T23:29:58.732Z,81.08
2019-02-17T23:32:32.027Z,81.22
2019-02-17T23:35:05.668Z,81.49
2019-02-17T23:37:38.943Z,81.73
2019-02-17T23:40:12.424Z,82.30
2019-02-17T23:42:45.708Z,82.33
2019-02-17T23:45:19.055Z,82.51
2019-02-17T23:47:52.334Z,82.33
2019-02-17T23:50:25.761Z,82.43
2019-02-17T23:53:00.423Z,82.80
2019-02-17T23:55:33.729Z,82.81
2019-02-17T23:58:07.022Z,82.22
